Snohomish County (Paine Field) Airport
KPAE : now visible

Airfield :











YOU CAN JOIN US ON...

 
LOGIN :

Register | Disclaimer

   EN    FR    IT 

 









Legend :    VFR   Marginal VFR   IFR   Intensive IFR   Very Intensive IFR
Visi :
Ceiling :
>= 8 km
>= 3000ft
5 to 8 km
1000 to 3000 ft
1500m to 5 km
500 to 1000 ft
800 to 1500m
200 to 500 ft
< 800m
< 200 ft
Symbols :   Thunderstorms  Fog  Heavy snow  Heavy precipitations  Wind > 20 kt






- Airport Elevation : 606 ft
- IATA code : PAE


KPAE - Snohomish County (Paine Field)

CURRENT METAR :
  • 211553Z 16013G20KT 8SM -RA OVC008 10/08 A3009 RMK AO2 SLP191 P0000 T01000078

EXPIRED METARs :
  • 211531Z 16013KT 9SM -RA OVC009 10/07 A3010 RMK AO2 P0000 T01000072
  • 211453Z 16010KT 9SM -RA OVC011 10/07 A3011 RMK AO2 RAB08 SLP197 P0001 60001 T01000072 58015
  • 211402Z 15010KT 10SM BKN013 OVC065 10/06 A3012 RMK AO2 T01000061
  • 211327Z AUTO 15009KT 10SM BKN019 OVC065 09/06 A3014 RMK AO2 T00940056
  • 211253Z AUTO 17008KT 10SM OVC060 09/06 A3014 RMK AO2 SLP207 T00940056
  • 211153Z AUTO 17008KT 10SM BKN055 OVC110 10/06 A3015 RMK AO2 SLP211 T01000056 10106 20100 56014

TAF KPAE
Valid from the 21 at 16:00 until the 22 at 12:00 UTC


211541Z 2116/2212 16012KT P6SM -RA OVC008
FM211700 16018G25KT 5SM -RA BR OVC015
FM220100 11009KT P6SM -SHRA OVC020
KZSE FIR / North America



MET'MAP, your aeronautical weather chart ! - Copyright ORBIFLY December 2007 - Disclaimer

ORBIFLY MET'MAP TEAM :

Programming & Development : Alexandra Zaïnal
Original concept : Baudouin d'Aumeries
Technical & hardware support : Manuel Goepfert
Assistance : Marc-Olivier Méhu




SOURCES & CREDITS :

   NOAA       Earth
Advisory